createdAt,value
2023-04-30T00:02:17.798Z,9.40
2023-04-30T00:04:47.762Z,9.45
2023-04-30T00:07:17.500Z,9.44
2023-04-30T00:09:47.246Z,9.45
2023-04-30T00:12:19.784Z,9.47
2023-04-30T00:14:49.586Z,9.41
2023-04-30T00:17:19.312Z,9.43
2023-04-30T00:19:49.007Z,9.36
2023-04-30T00:22:18.745Z,9.32
2023-04-30T00:24:48.766Z,9.23
2023-04-30T00:27:21.443Z,9.25
2023-04-30T00:29:51.197Z,9.01
2023-04-30T00:32:21.514Z,8.95
2023-04-30T00:34:51.553Z,8.91
2023-04-30T00:37:21.337Z,8.92
2023-04-30T00:39:51.156Z,8.99
2023-04-30T00:42:23.487Z,9.07
2023-04-30T00:44:53.209Z,9.04
2023-04-30T00:47:23.013Z,8.99
2023-04-30T00:49:52.988Z,8.84
2023-04-30T00:52:22.923Z,8.86
2023-04-30T00:54:54.503Z,8.71
2023-04-30T00:57:27.946Z,8.71
2023-04-30T00:59:58.270Z,8.51
2023-04-30T01:02:28.440Z,8.73
2023-04-30T01:04:58.855Z,8.62
2023-04-30T01:07:29.524Z,8.59
2023-04-30T01:09:59.506Z,8.59
2023-04-30T01:12:40.440Z,8.60
2023-04-30T01:15:25.667Z,8.54
2023-04-30T01:17:59.989Z,8.50
2023-04-30T01:20:32.561Z,8.50
2023-04-30T01:23:16.785Z,8.48
2023-04-30T01:26:10.913Z,8.40
2023-04-30T01:28:47.549Z,8.40
2023-04-30T01:31:17.525Z,8.36
2023-04-30T01:33:47.330Z,8.26
2023-04-30T01:36:27.346Z,8.32
2023-04-30T01:39:08.699Z,8.28
2023-04-30T01:41:45.260Z,7.91
2023-04-30T01:44:40.959Z,8.24
2023-04-30T01:47:20.999Z,8.08
2023-04-30T01:50:00.720Z,8.03
2023-04-30T01:52:36.131Z,8.03
2023-04-30T01:55:11.305Z,8.09
2023-04-30T01:57:44.394Z,8.06
2023-04-30T02:00:18.093Z,8.07
2023-04-30T02:02:47.920Z,8.09
2023-04-30T02:05:18.847Z,7.98
2023-04-30T02:07:51.647Z,7.81
2023-04-30T02:10:22.586Z,7.85
2023-04-30T02:12:52.479Z,7.56
2023-04-30T02:15:24.984Z,7.68
2023-04-30T02:17:54.792Z,7.62
2023-04-30T02:20:24.597Z,7.50
2023-04-30T02:22:54.420Z,7.51
2023-04-30T02:25:24.195Z,7.33
2023-04-30T02:27:53.941Z,7.27
2023-04-30T02:30:26.237Z,7.20
2023-04-30T02:32:56.009Z,7.29
2023-04-30T02:35:25.765Z,7.41
2023-04-30T02:37:55.589Z,7.45
2023-04-30T02:40:25.333Z,7.44
2023-04-30T02:42:56.953Z,7.45
2023-04-30T02:45:29.312Z,7.51
2023-04-30T02:47:59.148Z,7.44
2023-04-30T02:50:28.944Z,7.47
2023-04-30T02:52:58.912Z,7.40
2023-04-30T02:55:28.671Z,7.35
2023-04-30T02:57:58.771Z,7.25
2023-04-30T03:00:31.118Z,7.17
2023-04-30T03:03:01.169Z,7.35
2023-04-30T03:05:31.698Z,7.36
2023-04-30T03:08:01.425Z,7.27
2023-04-30T03:10:31.196Z,7.35
2023-04-30T03:13:01.331Z,7.18
2023-04-30T03:15:35.660Z,7.15
2023-04-30T03:18:05.479Z,7.20
2023-04-30T03:20:35.237Z,7.18
2023-04-30T03:23:05.095Z,7.14
2023-04-30T03:25:34.872Z,7.03
2023-04-30T03:28:04.589Z,7.08
2023-04-30T03:30:37.008Z,7.03
2023-04-30T03:33:07.379Z,7.01
2023-04-30T03:35:37.536Z,6.65
2023-04-30T03:38:07.262Z,6.95
2023-04-30T03:40:36.966Z,7.01
2023-04-30T03:43:06.809Z,7.00
2023-04-30T03:45:39.230Z,7.05
2023-04-30T03:48:09.249Z,6.96
2023-04-30T03:50:39.064Z,7.09
2023-04-30T03:53:11.590Z,6.91
2023-04-30T03:55:41.736Z,6.94
2023-04-30T03:58:11.592Z,6.85
2023-04-30T04:00:45.877Z,6.86
2023-04-30T04:03:15.997Z,6.68
2023-04-30T04:05:46.287Z,6.71
2023-04-30T04:08:16.179Z,6.75
2023-04-30T04:10:46.673Z,6.79
2023-04-30T04:13:16.409Z,6.74
2023-04-30T04:15:48.789Z,6.86
2023-04-30T04:18:18.668Z,6.85
2023-04-30T04:20:48.447Z,6.79
2023-04-30T04:23:19.478Z,6.71
2023-04-30T04:25:49.783Z,6.60
2023-04-30T04:28:19.577Z,6.67
2023-04-30T04:30:52.634Z,6.55
2023-04-30T04:33:22.443Z,6.60
2023-04-30T04:35:52.208Z,6.62
2023-04-30T04:38:23.029Z,6.53
2023-04-30T04:40:56.161Z,6.45
2023-04-30T04:43:26.420Z,6.63
2023-04-30T04:45:59.148Z,6.72
2023-04-30T04:48:28.856Z,6.76
2023-04-30T04:50:59.224Z,6.74
2023-04-30T04:53:28.990Z,6.92
2023-04-30T04:55:58.712Z,6.93
2023-04-30T04:58:28.439Z,7.08
2023-04-30T05:01:01.596Z,7.27
2023-04-30T05:03:33.944Z,7.29
2023-04-30T05:06:03.850Z,7.27
2023-04-30T05:08:34.473Z,7.36
2023-04-30T05:11:04.199Z,7.48
2023-04-30T05:13:33.981Z,7.46
2023-04-30T05:16:06.803Z,7.48
2023-04-30T05:18:36.544Z,7.38
2023-04-30T05:21:06.925Z,7.60
2023-04-30T05:23:36.650Z,7.69
2023-04-30T05:26:06.575Z,7.71
2023-04-30T05:28:36.396Z,7.76
2023-04-30T05:31:08.913Z,8.05
2023-04-30T05:33:40.993Z,8.22
2023-04-30T05:36:11.022Z,8.48
2023-04-30T05:38:40.854Z,8.70
2023-04-30T05:41:10.685Z,8.84
2023-04-30T05:43:40.451Z,9.06
2023-04-30T05:46:12.849Z,9.29
2023-04-30T05:48:42.685Z,9.39
2023-04-30T05:51:12.680Z,9.62
2023-04-30T05:53:42.431Z,9.70
2023-04-30T05:56:12.703Z,9.90
2023-04-30T05:58:42.483Z,10.01
2023-04-30T06:01:14.768Z,10.19
2023-04-30T06:03:44.558Z,10.12
2023-04-30T06:06:14.378Z,10.13
2023-04-30T06:08:45.740Z,10.53
2023-04-30T06:11:16.436Z,10.71
2023-04-30T06:13:46.246Z,10.82
2023-04-30T06:16:18.656Z,10.93
2023-04-30T06:18:48.523Z,11.08
2023-04-30T06:21:18.508Z,11.31
2023-04-30T06:23:48.238Z,11.09
2023-04-30T06:26:18.041Z,11.31
2023-04-30T06:28:47.765Z,11.52
2023-04-30T06:31:20.145Z,11.75
2023-04-30T06:33:50.373Z,11.69
2023-04-30T06:36:20.503Z,11.59
2023-04-30T06:38:50.234Z,11.39
2023-04-30T06:41:20.065Z,11.32
2023-04-30T06:43:49.803Z,11.56
2023-04-30T06:46:22.204Z,11.64
2023-04-30T06:48:51.987Z,11.93
2023-04-30T06:51:21.739Z,11.27
2023-04-30T06:53:51.465Z,11.51
2023-04-30T06:56:22.177Z,11.62
2023-04-30T06:58:52.682Z,11.50
2023-04-30T07:01:25.036Z,11.24
2023-04-30T07:03:55.640Z,10.89
2023-04-30T07:06:25.669Z,10.94
2023-04-30T07:08:55.466Z,11.04
2023-04-30T07:11:25.188Z,11.33
2023-04-30T07:13:55.040Z,11.08
2023-04-30T07:16:28.692Z,11.25
2023-04-30T07:18:59.430Z,10.96
2023-04-30T07:21:29.370Z,11.34
2023-04-30T07:23:59.203Z,11.40
2023-04-30T07:26:28.941Z,11.74
2023-04-30T07:28:58.646Z,11.72
2023-04-30T07:31:30.976Z,11.82
2023-04-30T07:34:00.734Z,11.66
2023-04-30T07:36:31.148Z,11.44
2023-04-30T07:39:01.135Z,11.49
2023-04-30T07:41:30.861Z,11.73
2023-04-30T07:44:00.611Z,11.82
2023-04-30T07:46:32.962Z,11.53
2023-04-30T07:49:02.760Z,11.61
2023-04-30T07:51:33.051Z,11.89
2023-04-30T07:54:04.122Z,11.76
2023-04-30T07:56:34.136Z,11.72
2023-04-30T07:59:03.867Z,11.83
2023-04-30T08:01:36.249Z,11.73
2023-04-30T08:04:07.479Z,12.09
2023-04-30T08:06:37.224Z,12.22
2023-04-30T08:09:07.393Z,12.30
2023-04-30T08:11:37.181Z,12.27
2023-04-30T08:14:07.184Z,12.26
2023-04-30T08:16:39.611Z,12.18
2023-04-30T08:19:09.537Z,12.08
2023-04-30T08:21:39.443Z,12.01
2023-04-30T08:24:09.261Z,12.20
2023-04-30T08:26:38.989Z,12.24
2023-04-30T08:29:08.729Z,12.38
2023-04-30T08:31:41.197Z,12.41
2023-04-30T08:34:10.984Z,12.48
2023-04-30T08:36:40.710Z,12.68
2023-04-30T08:39:10.422Z,12.85
2023-04-30T08:41:43.510Z,12.73
2023-04-30T08:44:14.049Z,12.65
2023-04-30T08:46:48.268Z,12.57
2023-04-30T08:49:18.019Z,11.94
2023-04-30T08:51:49.358Z,12.05
2023-04-30T08:54:21.184Z,11.91
2023-04-30T08:56:51.086Z,12.37
2023-04-30T08:59:21.157Z,12.49
2023-04-30T09:01:54.083Z,12.42
2023-04-30T09:04:23.909Z,12.58
2023-04-30T09:06:59.144Z,12.69
2023-04-30T09:09:32.019Z,12.62
2023-04-30T09:12:19.309Z,12.61
2023-04-30T09:15:03.991Z,13.01
2023-04-30T09:17:38.593Z,13.03
2023-04-30T09:20:13.570Z,13.84
2023-04-30T09:22:45.584Z,13.27
2023-04-30T09:25:16.692Z,12.84
2023-04-30T09:27:48.563Z,12.84
2023-04-30T09:30:34.942Z,13.33
2023-04-30T09:33:11.491Z,13.64
2023-04-30T09:35:43.566Z,13.84
2023-04-30T09:38:29.701Z,13.40
2023-04-30T09:41:02.050Z,13.68
2023-04-30T09:43:32.113Z,13.63
2023-04-30T09:46:02.916Z,13.67
2023-04-30T09:48:36.112Z,13.57
2023-04-30T09:51:07.017Z,13.69
2023-04-30T09:53:41.005Z,13.74
2023-04-30T09:56:13.283Z,13.90
2023-04-30T09:58:52.002Z,13.85
2023-04-30T10:01:22.894Z,13.90
2023-04-30T10:03:56.815Z,13.96
2023-04-30T10:06:28.830Z,13.89
2023-04-30T10:09:02.497Z,14.09
2023-04-30T10:11:35.943Z,14.00
2023-04-30T10:14:14.271Z,14.04
2023-04-30T10:16:50.945Z,14.16
2023-04-30T10:19:29.224Z,14.30
2023-04-30T10:21:59.787Z,14.36
2023-04-30T10:24:30.095Z,14.53
2023-04-30T10:27:00.436Z,14.56
2023-04-30T10:29:30.974Z,14.74
2023-04-30T10:32:02.223Z,14.68
2023-04-30T10:34:46.407Z,14.42
2023-04-30T10:37:24.246Z,14.34
2023-04-30T10:39:56.214Z,14.25
2023-04-30T10:42:26.985Z,14.27
2023-04-30T10:44:57.733Z,14.33
2023-04-30T10:47:32.926Z,14.44
2023-04-30T10:50:12.275Z,14.59
2023-04-30T10:52:44.043Z,14.45
2023-04-30T10:55:14.846Z,14.85
2023-04-30T10:57:48.685Z,14.86
2023-04-30T11:00:23.399Z,14.84
2023-04-30T11:03:01.268Z,14.79
2023-04-30T11:05:41.914Z,15.04
2023-04-30T11:08:15.123Z,15.19
2023-04-30T11:11:01.245Z,15.15
2023-04-30T11:13:31.559Z,14.89
2023-04-30T11:16:06.859Z,14.75
2023-04-30T11:18:36.758Z,14.59
2023-04-30T11:21:11.617Z,14.79
2023-04-30T11:23:45.146Z,14.68
2023-04-30T11:26:15.522Z,14.84
2023-04-30T11:28:54.723Z,14.92
2023-04-30T11:31:25.963Z,14.88
2023-04-30T11:33:59.223Z,14.94
2023-04-30T11:36:34.851Z,14.96
2023-04-30T11:39:09.593Z,14.91
2023-04-30T11:41:44.730Z,15.10
2023-04-30T11:44:26.248Z,14.96
2023-04-30T11:46:57.334Z,15.09
2023-04-30T11:49:27.878Z,15.15
2023-04-30T11:52:01.099Z,15.21
2023-04-30T11:54:35.526Z,15.18
2023-04-30T11:57:06.932Z,15.31
2023-04-30T11:59:44.564Z,15.38
2023-04-30T12:02:18.801Z,15.50
2023-04-30T12:04:49.536Z,14.99
2023-04-30T12:07:23.757Z,15.37
2023-04-30T12:09:57.807Z,15.45
2023-04-30T12:12:33.088Z,15.54
2023-04-30T12:15:14.421Z,15.47
2023-04-30T12:17:45.371Z,15.42
2023-04-30T12:20:18.801Z,15.49
2023-04-30T12:22:51.763Z,15.60
2023-04-30T12:25:23.359Z,15.71
2023-04-30T12:27:54.655Z,15.66
2023-04-30T12:30:27.102Z,15.68
2023-04-30T12:33:00.541Z,15.83
2023-04-30T12:35:32.689Z,15.81
2023-04-30T12:38:09.777Z,15.76
2023-04-30T12:40:40.952Z,15.93
2023-04-30T12:43:11.901Z,15.95
2023-04-30T12:45:51.436Z,15.91
2023-04-30T12:48:22.845Z,15.89
2023-04-30T12:50:57.060Z,15.81
2023-04-30T12:53:29.960Z,15.74
2023-04-30T12:56:16.937Z,15.97
2023-04-30T12:58:48.631Z,16.00
2023-04-30T13:01:21.103Z,16.07
2023-04-30T13:03:51.133Z,16.04
2023-04-30T13:06:21.118Z,16.29
2023-04-30T13:11:27.153Z,16.38
2023-04-30T13:13:57.914Z,16.28
2023-04-30T13:16:28.541Z,16.36
2023-04-30T13:18:58.323Z,16.36
2023-04-30T13:21:28.118Z,16.43
2023-04-30T13:24:00.423Z,16.38
2023-04-30T13:26:30.822Z,16.50
2023-04-30T13:29:00.751Z,16.61
2023-04-30T13:31:30.678Z,16.66
2023-04-30T13:34:00.659Z,16.63
2023-04-30T13:36:30.396Z,16.61
2023-04-30T13:39:03.004Z,16.78
2023-04-30T13:41:32.805Z,16.76
2023-04-30T13:44:03.222Z,16.84
2023-04-30T13:46:33.125Z,16.84
2023-04-30T13:49:03.108Z,16.95
2023-04-30T13:51:32.825Z,16.77
2023-04-30T13:54:05.193Z,16.86
2023-04-30T13:56:35.085Z,16.65
2023-04-30T13:59:05.000Z,16.45
2023-04-30T14:01:34.784Z,16.52
2023-04-30T14:04:04.945Z,16.77
2023-04-30T14:06:34.893Z,16.37
2023-04-30T14:09:07.397Z,16.89
2023-04-30T14:11:37.191Z,16.95
2023-04-30T14:14:07.396Z,16.91
2023-04-30T14:16:37.360Z,16.98
2023-04-30T14:19:07.130Z,16.96
2023-04-30T14:21:37.002Z,16.98
2023-04-30T14:24:10.090Z,16.92
2023-04-30T14:26:40.840Z,17.04
2023-04-30T14:29:10.598Z,16.96
2023-04-30T14:31:40.438Z,17.04
2023-04-30T14:34:10.223Z,17.07
2023-04-30T14:36:40.376Z,17.03
2023-04-30T14:39:13.093Z,17.10
2023-04-30T14:41:42.939Z,17.07
2023-04-30T14:44:12.695Z,17.14
2023-04-30T14:46:42.481Z,17.01
2023-04-30T14:49:12.198Z,17.03
2023-04-30T14:51:42.097Z,17.16
2023-04-30T14:54:14.464Z,16.97
2023-04-30T14:56:44.574Z,16.93
2023-04-30T14:59:14.798Z,16.94
2023-04-30T15:01:44.890Z,16.75
2023-04-30T15:04:14.667Z,17.06
2023-04-30T15:06:44.517Z,16.96
2023-04-30T15:09:17.026Z,17.04
2023-04-30T15:11:46.735Z,16.92
2023-04-30T15:14:17.212Z,16.96
2023-04-30T15:16:47.293Z,16.77
2023-04-30T15:19:17.199Z,17.07
2023-04-30T15:21:48.975Z,17.14
2023-04-30T15:24:21.788Z,17.23
2023-04-30T15:26:52.728Z,17.36
2023-04-30T15:29:22.569Z,17.40
2023-04-30T15:31:54.077Z,17.38
2023-04-30T15:34:25.127Z,17.26
2023-04-30T15:36:54.938Z,17.01
2023-04-30T15:39:27.243Z,17.08
2023-04-30T15:41:57.073Z,16.79
2023-04-30T15:44:26.925Z,16.96
2023-04-30T15:46:56.936Z,17.06
2023-04-30T15:49:26.806Z,17.21
2023-04-30T15:51:56.497Z,17.27
2023-04-30T15:54:28.880Z,17.15
2023-04-30T15:56:59.785Z,17.17
2023-04-30T15:59:29.883Z,17.20
2023-04-30T16:01:59.661Z,17.29
2023-04-30T16:04:29.574Z,17.16
2023-04-30T16:06:59.478Z,17.29
2023-04-30T16:09:31.915Z,17.29
2023-04-30T16:12:02.294Z,17.20
2023-04-30T16:14:32.043Z,17.15
2023-04-30T16:17:01.962Z,17.06
2023-04-30T16:19:31.891Z,16.90
2023-04-30T16:22:01.925Z,16.78
2023-04-30T16:24:34.244Z,16.93
2023-04-30T16:27:04.075Z,16.86
2023-04-30T16:29:34.059Z,16.89
2023-04-30T16:32:03.821Z,16.97
2023-04-30T16:34:33.666Z,16.97
2023-04-30T16:37:03.806Z,16.91
2023-04-30T16:39:36.133Z,16.81
2023-04-30T16:42:06.054Z,16.74
2023-04-30T16:44:35.850Z,16.68
2023-04-30T16:47:05.574Z,16.64
2023-04-30T16:49:35.322Z,16.69
2023-04-30T16:52:05.166Z,16.68
2023-04-30T16:54:37.484Z,16.70
2023-04-30T16:57:07.408Z,16.71
2023-04-30T16:59:37.731Z,16.58
2023-04-30T17:02:08.302Z,16.71
2023-04-30T17:04:38.133Z,16.63
2023-04-30T17:07:07.941Z,16.72
2023-04-30T17:09:40.278Z,16.71
2023-04-30T17:12:10.009Z,16.72
2023-04-30T17:14:40.205Z,16.76
2023-04-30T17:17:09.936Z,16.59
2023-04-30T17:19:39.672Z,16.46
2023-04-30T17:22:09.372Z,16.47
2023-04-30T17:24:42.039Z,16.52
2023-04-30T17:27:11.987Z,16.39
2023-04-30T17:29:41.914Z,16.35
2023-04-30T17:32:11.840Z,16.31
2023-04-30T17:34:42.550Z,16.20
2023-04-30T17:37:12.412Z,16.26
2023-04-30T17:39:44.721Z,16.25
2023-04-30T17:42:15.020Z,16.18
2023-04-30T17:44:44.852Z,16.14
2023-04-30T17:47:16.200Z,15.98
2023-04-30T17:49:46.117Z,15.92
2023-04-30T17:52:15.900Z,15.95
2023-04-30T17:54:48.235Z,15.99
2023-04-30T17:57:17.985Z,15.56
2023-04-30T17:59:47.720Z,15.89
2023-04-30T18:02:17.521Z,15.78
2023-04-30T18:04:47.407Z,15.81
2023-04-30T18:07:17.150Z,15.76
2023-04-30T18:09:49.571Z,15.65
2023-04-30T18:12:20.138Z,15.73
2023-04-30T18:14:49.985Z,15.68
2023-04-30T18:17:19.764Z,15.69
2023-04-30T18:19:49.959Z,15.62
2023-04-30T18:22:19.847Z,15.50
2023-04-30T18:24:52.189Z,15.54
2023-04-30T18:27:21.938Z,15.45
2023-04-30T18:29:52.444Z,15.45
2023-04-30T18:32:22.377Z,15.36
2023-04-30T18:34:52.109Z,15.40
2023-04-30T18:37:21.875Z,15.35
2023-04-30T18:39:54.706Z,15.30
2023-04-30T18:42:25.247Z,15.13
2023-04-30T18:44:55.488Z,15.04
2023-04-30T18:47:25.281Z,15.05
2023-04-30T18:49:55.377Z,15.10
2023-04-30T18:52:25.412Z,15.05
2023-04-30T18:54:57.955Z,14.87
2023-04-30T18:57:28.528Z,14.73
2023-04-30T18:59:58.830Z,14.88
2023-04-30T19:02:28.854Z,14.74
2023-04-30T19:04:58.676Z,14.55
2023-04-30T19:07:28.577Z,14.53
2023-04-30T19:10:02.297Z,14.35
2023-04-30T19:12:32.145Z,14.38
2023-04-30T19:15:01.887Z,14.27
2023-04-30T19:17:31.747Z,14.35
2023-04-30T19:20:01.631Z,14.28
2023-04-30T19:22:31.720Z,14.33
2023-04-30T19:25:04.033Z,14.16
2023-04-30T19:27:33.790Z,13.97
2023-04-30T19:30:03.669Z,13.85
2023-04-30T19:32:33.475Z,13.79
2023-04-30T19:35:03.325Z,13.90
2023-04-30T19:37:33.322Z,13.78
2023-04-30T19:40:07.009Z,13.72
2023-04-30T19:42:36.734Z,13.63
2023-04-30T19:45:06.850Z,13.59
2023-04-30T19:47:36.709Z,13.61
2023-04-30T19:50:06.890Z,13.67
2023-04-30T19:52:36.663Z,13.66
2023-04-30T19:55:09.598Z,13.62
2023-04-30T19:57:39.326Z,13.59
2023-04-30T20:00:13.067Z,13.45
2023-04-30T20:02:43.745Z,13.49
2023-04-30T20:05:13.589Z,13.51
2023-04-30T20:07:43.325Z,13.40
2023-04-30T20:10:15.836Z,13.33
2023-04-30T20:12:45.593Z,13.21
2023-04-30T20:15:15.328Z,13.25
2023-04-30T20:17:45.814Z,13.08
2023-04-30T20:20:16.422Z,13.09
2023-04-30T20:22:46.792Z,12.84
2023-04-30T20:25:19.130Z,12.86
2023-04-30T20:27:48.970Z,12.72
2023-04-30T20:30:18.759Z,12.50
2023-04-30T20:32:48.692Z,12.56
2023-04-30T20:35:18.576Z,12.42
2023-04-30T20:37:49.821Z,12.35
2023-04-30T20:40:22.550Z,12.31
2023-04-30T20:42:52.460Z,12.24
2023-04-30T20:45:23.305Z,12.39
2023-04-30T20:47:53.408Z,12.00
2023-04-30T20:50:23.302Z,12.17
2023-04-30T20:52:53.027Z,12.18
2023-04-30T20:55:25.472Z,12.21
2023-04-30T20:57:55.292Z,12.07
2023-04-30T21:00:25.293Z,12.13
2023-04-30T21:02:55.271Z,12.02
2023-04-30T21:05:25.185Z,11.96
2023-04-30T21:07:55.134Z,11.85
2023-04-30T21:10:27.480Z,11.75
2023-04-30T21:12:58.011Z,11.74
2023-04-30T21:15:29.020Z,11.52
2023-04-30T21:17:58.817Z,11.62
2023-04-30T21:20:28.625Z,11.61
2023-04-30T21:22:58.416Z,11.73
2023-04-30T21:25:31.168Z,11.73
2023-04-30T21:28:01.457Z,11.55
2023-04-30T21:30:31.479Z,11.36
2023-04-30T21:33:01.313Z,11.55
2023-04-30T21:35:33.245Z,11.46
2023-04-30T21:38:03.084Z,11.44
2023-04-30T21:40:36.855Z,11.40
2023-04-30T21:43:07.021Z,11.38
2023-04-30T21:45:36.768Z,11.35
2023-04-30T21:48:07.036Z,11.16
2023-04-30T21:50:38.586Z,11.34
2023-04-30T21:53:08.425Z,11.25
2023-04-30T21:55:40.859Z,11.39
2023-04-30T21:58:10.596Z,11.33
2023-04-30T22:00:40.901Z,11.17
2023-04-30T22:03:10.823Z,11.16
2023-04-30T22:05:43.289Z,11.11
2023-04-30T22:08:13.050Z,11.08
2023-04-30T22:10:45.440Z,11.01
2023-04-30T22:13:15.489Z,10.98
2023-04-30T22:15:48.370Z,10.65
2023-04-30T22:18:18.585Z,10.87
2023-04-30T22:20:48.352Z,10.79
2023-04-30T22:23:18.510Z,10.75
2023-04-30T22:25:50.953Z,10.62
2023-04-30T22:28:21.234Z,10.73
2023-04-30T22:30:51.072Z,10.72
2023-04-30T22:33:22.066Z,10.71
2023-04-30T22:35:52.620Z,10.56
2023-04-30T22:38:22.489Z,10.63
2023-04-30T22:40:54.970Z,10.66
2023-04-30T22:43:24.814Z,10.54
2023-04-30T22:45:54.768Z,10.46
2023-04-30T22:48:24.902Z,10.27
2023-04-30T22:50:55.667Z,10.30
2023-04-30T22:53:25.528Z,10.22
2023-04-30T22:55:58.002Z,10.35
2023-04-30T22:58:27.778Z,10.31
2023-04-30T23:00:57.754Z,10.05
2023-04-30T23:03:27.502Z,10.23
2023-04-30T23:05:57.320Z,10.16
2023-04-30T23:08:27.222Z,10.02
2023-04-30T23:11:00.560Z,9.86
2023-04-30T23:13:30.356Z,9.90
2023-04-30T23:16:01.473Z,9.95
2023-04-30T23:18:31.707Z,9.84
2023-04-30T23:21:01.733Z,9.64
2023-04-30T23:23:31.457Z,9.48
2023-04-30T23:26:04.265Z,9.40
2023-04-30T23:28:34.056Z,9.22
2023-04-30T23:31:03.798Z,9.09
2023-04-30T23:33:33.552Z,8.95
2023-04-30T23:36:03.304Z,8.93
2023-04-30T23:38:33.013Z,8.67
2023-04-30T23:41:05.713Z,8.58
2023-04-30T23:43:35.556Z,8.73
2023-04-30T23:46:05.349Z,8.70
2023-04-30T23:48:36.151Z,8.72
2023-04-30T23:51:08.995Z,8.72
2023-04-30T23:53:38.922Z,8.93
2023-04-30T23:56:11.630Z,8.85
2023-04-30T23:58:41.463Z,8.82
